Time;durP1;ratioP1;P1;durP2;ratioP2;P2;SDS_P1;SDS_P2;PMS_P1;PMS_P2;Temp;Humidity;BMP_temperature;BMP_pressure;BME280_temperature;BME280_humidity;BME280_pressure;Samples;Min_cycle;Max_cycle;Signal;HPM_P1;HPM_P2
2023/03/20 00:01:57;;;;;;;9.52;2.90;;;8.10;99.90;;;;;;4944292;28;20091;-45
2023/03/20 00:04:22;;;;;;;8.25;3.08;;;8.10;99.90;;;;;;4945632;28;20142;-47
2023/03/20 00:06:48;;;;;;;8.55;3.08;;;8.10;99.90;;;;;;4945855;29;20202;-49
2023/03/20 00:09:14;;;;;;;7.22;3.13;;;8.10;99.90;;;;;;4946470;28;20169;-46
2023/03/20 00:11:47;;;;;;;8.38;2.72;;;8.10;99.90;;;;;;4948370;28;20047;-42
2023/03/20 00:14:14;;;;;;;8.52;2.70;;;8.10;99.90;;;;;;4946612;28;20047;-47
2023/03/20 00:16:46;;;;;;;9.38;3.10;;;8.10;99.90;;;;;;4949787;28;20145;-48
2023/03/20 00:19:17;;;;;;;6.25;2.55;;;8.10;99.90;;;;;;4946923;28;20448;-40
2023/03/20 00:21:46;;;;;;;7.70;2.90;;;8.10;99.90;;;;;;4946397;28;20051;-48
2023/03/20 00:24:12;;;;;;;11.80;2.75;;;8.10;99.90;;;;;;4942549;28;20051;-45
2023/03/20 00:26:38;;;;;;;6.75;2.72;;;8.10;99.90;;;;;;4947920;28;20098;-47
2023/03/20 00:29:06;;;;;;;9.73;2.20;;;8.00;99.90;;;;;;4948858;28;20138;-55
2023/03/20 00:31:36;;;;;;;6.05;2.55;;;8.00;99.90;;;;;;4948013;28;20090;-47
2023/03/20 00:34:05;;;;;;;10.60;2.80;;;8.00;99.90;;;;;;4944879;28;20047;-48
2023/03/20 00:36:31;;;;;;;9.70;2.20;;;8.00;99.90;;;;;;4944981;28;20051;-47
2023/03/20 00:38:57;;;;;;;7.32;2.25;;;8.00;99.90;;;;;;4947501;28;20055;-47
2023/03/20 00:41:27;;;;;;;18.15;3.53;;;8.00;99.90;;;;;;4948421;28;20047;-46
2023/03/20 00:44:00;;;;;;;14.50;4.05;;;8.00;99.90;;;;;;4946306;28;20534;-47
2023/03/20 00:46:26;;;;;;;8.15;2.47;;;8.00;99.90;;;;;;4946229;29;20051;-45
2023/03/20 00:48:52;;;;;;;8.75;2.95;;;8.00;99.90;;;;;;4943119;28;20055;-46
2023/03/20 00:51:18;;;;;;;10.90;3.83;;;8.00;99.90;;;;;;4946089;28;20064;-47
2023/03/20 00:53:44;;;;;;;12.35;3.72;;;8.00;99.90;;;;;;4945133;28;20501;-46
2023/03/20 00:56:32;;;;;;;10.50;3.70;;;8.00;99.90;;;;;;4947096;28;20056;-48
2023/03/20 00:58:59;;;;;;;12.65;4.30;;;8.00;99.90;;;;;;4947109;28;20055;-48
2023/03/20 01:01:26;;;;;;;11.60;4.45;;;8.00;99.90;;;;;;4942521;28;20059;-46
2023/03/20 01:03:51;;;;;;;10.70;3.78;;;8.00;99.90;;;;;;4943217;28;20118;-46
2023/03/20 01:06:17;;;;;;;12.65;5.15;;;8.00;99.90;;;;;;4942961;28;20043;-46
2023/03/20 01:08:43;;;;;;;14.98;5.40;;;8.00;99.90;;;;;;4943358;28;20055;-48
2023/03/20 01:11:11;;;;;;;13.88;5.40;;;8.00;99.90;;;;;;4945806;28;20054;-47
2023/03/20 01:13:39;;;;;;;14.43;5.75;;;8.00;99.90;;;;;;4944786;28;20525;-47
2023/03/20 01:16:06;;;;;;;10.45;4.55;;;8.00;99.90;;;;;;4948490;28;20051;-45
2023/03/20 01:18:31;;;;;;;11.15;5.00;;;8.00;99.90;;;;;;4942512;28;20044;-53
2023/03/20 01:20:57;;;;;;;12.07;4.90;;;7.90;99.90;;;;;;4947313;28;20048;-49
2023/03/20 01:23:23;;;;;;;11.20;4.82;;;8.00;99.90;;;;;;4945778;28;20054;-49
2023/03/20 01:25:50;;;;;;;13.15;5.07;;;8.00;99.90;;;;;;4944439;28;20055;-48
2023/03/20 01:28:21;;;;;;;10.85;4.82;;;8.00;99.90;;;;;;4947551;28;20523;-46
2023/03/20 01:30:47;;;;;;;14.27;6.10;;;7.90;99.90;;;;;;4948613;28;20057;-46
2023/03/20 01:33:22;;;;;;;13.85;4.97;;;8.00;99.90;;;;;;4945048;28;20055;-46
2023/03/20 01:35:49;;;;;;;10.48;4.38;;;7.90;99.90;;;;;;4943963;28;20063;-44
2023/03/20 01:38:22;;;;;;;13.10;5.05;;;8.00;99.90;;;;;;4943498;28;20069;-48
2023/03/20 01:41:07;;;;;;;;;;;8.00;99.90;;;;;;4944292;28;20060;-46
2023/03/20 01:43:34;;;;;;;13.20;5.07;;;8.00;99.90;;;;;;4935409;28;19922;-46
2023/03/20 01:46:21;;;;;;;14.25;5.25;;;8.00;99.90;;;;;;4945075;28;20054;-47
2023/03/20 01:48:50;;;;;;;14.50;4.93;;;8.00;99.90;;;;;;4944198;28;20291;-48
2023/03/20 01:51:21;;;;;;;11.13;5.45;;;8.00;99.90;;;;;;4946677;28;20043;-49
2023/03/20 01:53:54;;;;;;;14.20;5.18;;;8.00;99.90;;;;;;4942766;28;20091;-47
2023/03/20 01:56:20;;;;;;;12.60;6.20;;;8.00;99.90;;;;;;4943902;28;20414;-44
2023/03/20 01:58:52;;;;;;;12.55;5.78;;;8.00;99.90;;;;;;4946589;28;20055;-42
2023/03/20 02:01:18;;;;;;;15.27;5.85;;;8.00;99.90;;;;;;4947206;28;20094;-37
2023/03/20 02:03:48;;;;;;;11.38;5.35;;;8.00;99.90;;;;;;4939971;28;20087;-37
2023/03/20 02:06:14;;;;;;;12.52;5.85;;;8.00;99.90;;;;;;4947276;28;20051;-38
2023/03/20 02:08:45;;;;;;;13.23;5.32;;;8.00;99.90;;;;;;4946115;28;20457;-37
2023/03/20 02:11:12;;;;;;;10.52;4.88;;;8.00;99.90;;;;;;4944731;28;20051;-37
2023/03/20 02:13:39;;;;;;;12.35;5.13;;;8.00;99.90;;;;;;4940964;28;20051;-37
2023/03/20 02:16:11;;;;;;;10.05;4.97;;;8.00;99.90;;;;;;4946267;28;20082;-37
2023/03/20 02:18:40;;;;;;;10.18;4.82;;;8.00;99.90;;;;;;4944006;28;20043;-38
2023/03/20 02:21:24;;;;;;;9.27;4.20;;;8.00;99.90;;;;;;4946667;28;20047;-37
2023/03/20 02:23:50;;;;;;;11.88;4.53;;;8.00;99.90;;;;;;4943958;28;20062;-37
2023/03/20 02:26:21;;;;;;;9.25;4.10;;;8.00;99.90;;;;;;4947604;28;20404;-37
2023/03/20 02:29:07;;;;;;;10.65;4.25;;;8.00;99.90;;;;;;4945676;28;20062;-37
2023/03/20 02:31:35;;;;;;;10.57;4.05;;;8.00;99.90;;;;;;4947437;28;20051;-37
2023/03/20 02:34:18;;;;;;;10.85;4.38;;;8.00;99.90;;;;;;4943537;28;20106;-46
2023/03/20 02:37:05;;;;;;;10.43;4.32;;;8.00;99.90;;;;;;4931490;28;20058;-37
2023/03/20 02:40:02;;;;;;;11.40;3.92;;;8.00;99.90;;;;;;4931640;28;20186;-37
2023/03/20 02:42:48;;;;;;;12.20;4.82;;;8.00;99.90;;;;;;4927470;28;20680;-38
2023/03/20 02:45:30;;;;;;;11.50;3.83;;;8.00;99.90;;;;;;4929850;28;20083;-38
2023/03/20 02:48:26;;;;;;;13.68;4.90;;;8.00;99.90;;;;;;4922718;28;20138;-37
2023/03/20 02:51:17;;;;;;;10.57;3.95;;;8.00;99.90;;;;;;4939082;28;20091;-37
2023/03/20 02:53:52;;;;;;;11.90;3.45;;;8.00;99.90;;;;;;4933526;28;20086;-37
2023/03/20 02:56:42;;;;;;;8.45;3.30;;;8.00;99.90;;;;;;4926891;28;20066;-37
2023/03/20 02:59:20;;;;;;;9.07;2.97;;;8.00;99.90;;;;;;4929089;28;20490;-37
2023/03/20 03:01:53;;;;;;;9.00;3.78;;;8.00;99.90;;;;;;4929611;28;20413;-37
2023/03/20 03:04:22;;;;;;;;;;;8.00;99.90;;;;;;4928670;28;20070;-37
2023/03/20 03:06:54;;;;;;;10.05;3.40;;;8.00;99.90;;;;;;4926551;28;20396;-37
2023/03/20 03:09:31;;;;;;;9.90;3.30;;;7.90;99.90;;;;;;4933123;28;20153;-37
2023/03/20 03:12:09;;;;;;;10.05;3.25;;;8.00;99.90;;;;;;4926552;28;20643;-38
2023/03/20 03:14:44;;;;;;;9.65;3.17;;;7.90;99.90;;;;;;4929107;28;20059;-37
2023/03/20 03:17:14;;;;;;;6.07;2.72;;;7.90;99.90;;;;;;4928294;28;20454;-38
2023/03/20 03:19:45;;;;;;;6.18;3.22;;;7.90;99.90;;;;;;4931812;28;20047;-38
2023/03/20 03:22:11;;;;;;;7.68;3.17;;;7.90;99.90;;;;;;4927482;28;20138;-38
2023/03/20 03:24:49;;;;;;;6.43;2.80;;;7.90;99.90;;;;;;4926586;28;20055;-38
2023/03/20 03:27:21;;;;;;;8.68;2.42;;;7.90;99.90;;;;;;4928730;28;20575;-38
2023/03/20 03:29:54;;;;;;;12.82;3.53;;;8.00;99.90;;;;;;4929258;28;20058;-38
2023/03/20 03:32:30;;;;;;;8.43;3.08;;;8.00;99.90;;;;;;4928585;28;20065;-38
2023/03/20 03:34:57;;;;;;;9.40;4.25;;;7.90;99.90;;;;;;4942472;28;20819;-38
2023/03/20 03:37:38;;;;;;;9.48;3.20;;;7.90;99.90;;;;;;4932223;28;20059;-38
2023/03/20 03:40:36;;;;;;;9.60;3.03;;;7.90;99.90;;;;;;4928187;28;20055;-38
2023/03/20 03:43:42;;;;;;;7.00;3.30;;;7.90;99.90;;;;;;4926389;28;20857;-38
2023/03/20 03:46:36;;;;;;;8.70;3.28;;;7.90;99.90;;;;;;4930332;28;20070;-37
2023/03/20 03:49:04;;;;;;;8.82;2.80;;;7.90;99.90;;;;;;4927244;28;20055;-38
2023/03/20 03:51:33;;;;;;;9.60;3.47;;;7.80;99.90;;;;;;4928768;28;20552;-43
2023/03/20 03:54:09;;;;;;;9.32;3.40;;;7.80;99.90;;;;;;4927534;28;20067;-38
2023/03/20 03:56:36;;;;;;;8.63;3.22;;;7.80;99.90;;;;;;4934278;28;20051;-38
2023/03/20 03:59:07;;;;;;;11.85;3.80;;;7.70;99.90;;;;;;4926157;28;20043;-38
2023/03/20 04:01:34;;;;;;;9.55;4.15;;;7.70;99.90;;;;;;4928407;28;20082;-37
2023/03/20 04:04:03;;;;;;;10.07;4.88;;;7.70;99.90;;;;;;4927178;28;20110;-38
2023/03/20 04:06:30;;;;;;;12.20;4.38;;;7.70;99.90;;;;;;4929069;28;20498;-38
2023/03/20 04:08:56;;;;;;;15.30;4.95;;;7.70;99.90;;;;;;4929319;28;20047;-37
2023/03/20 04:11:23;;;;;;;9.63;4.18;;;7.60;99.90;;;;;;4926346;28;20043;-38
2023/03/20 04:13:51;;;;;;;13.02;5.20;;;7.60;99.90;;;;;;4931980;28;20055;-38
2023/03/20 04:16:18;;;;;;;9.90;4.88;;;7.60;99.90;;;;;;4926606;28;20058;-37
2023/03/20 04:18:44;;;;;;;9.98;4.63;;;7.60;99.90;;;;;;4925935;28;20127;-38
2023/03/20 04:21:11;;;;;;;10.95;4.85;;;7.60;99.90;;;;;;4925341;28;20082;-38
2023/03/20 04:23:37;;;;;;;9.80;5.00;;;7.60;99.90;;;;;;4945594;28;20485;-38
2023/03/20 04:26:03;;;;;;;11.23;4.88;;;7.60;99.90;;;;;;4929697;28;20059;-38
2023/03/20 04:28:29;;;;;;;10.20;4.10;;;7.60;99.90;;;;;;4944103;28;20518;-40
2023/03/20 04:31:00;;;;;;;10.10;4.72;;;7.60;99.90;;;;;;4929054;28;20173;-39
2023/03/20 04:33:26;;;;;;;12.82;4.80;;;7.50;99.90;;;;;;4932750;28;20047;-36
2023/03/20 04:35:53;;;;;;;12.07;5.93;;;7.60;99.90;;;;;;4926421;28;20098;-36
2023/03/20 04:38:19;;;;;;;13.13;5.18;;;7.60;99.90;;;;;;4926655;28;20085;-36
2023/03/20 04:40:46;;;;;;;13.45;5.43;;;7.50;99.90;;;;;;4929240;29;20055;-37
2023/03/20 04:43:12;;;;;;;10.65;5.80;;;7.50;99.90;;;;;;4934436;28;21063;-36
2023/03/20 04:45:38;;;;;;;12.50;4.75;;;7.50;99.90;;;;;;4942684;28;20078;-37
2023/03/20 04:48:04;;;;;;;11.63;5.32;;;7.50;99.90;;;;;;4945478;28;20517;-37
2023/03/20 04:50:30;;;;;;;8.05;4.70;;;7.50;99.90;;;;;;4948617;28;20062;-37
2023/03/20 04:52:56;;;;;;;10.90;4.90;;;7.50;99.90;;;;;;4947076;28;20055;-37
2023/03/20 04:55:22;;;;;;;11.45;4.32;;;7.50;99.90;;;;;;4946791;28;21702;-37
2023/03/20 04:57:48;;;;;;;10.55;5.25;;;7.40;99.90;;;;;;4943662;29;20142;-38
2023/03/20 05:00:14;;;;;;;9.77;4.90;;;7.40;99.90;;;;;;4945888;28;20098;-36
2023/03/20 05:02:40;;;;;;;13.68;5.15;;;7.40;99.90;;;;;;4943581;28;20563;-38
2023/03/20 05:05:06;;;;;;;10.38;5.00;;;7.40;99.90;;;;;;4949444;28;20096;-38
2023/03/20 05:07:32;;;;;;;9.15;5.05;;;7.40;99.90;;;;;;4944759;29;20409;-38
2023/03/20 05:09:57;;;;;;;13.75;5.38;;;7.40;99.90;;;;;;4941166;28;20418;-38
2023/03/20 05:12:26;;;;;;;11.75;5.63;;;7.50;99.90;;;;;;4943283;28;20047;-38
2023/03/20 05:14:53;;;;;;;11.95;5.45;;;7.40;99.90;;;;;;4945786;28;20055;-38
2023/03/20 05:17:20;;;;;;;10.48;4.68;;;7.50;99.90;;;;;;4941029;28;20492;-38
2023/03/20 05:19:46;;;;;;;9.18;4.88;;;7.40;99.90;;;;;;4946889;28;20481;-37
2023/03/20 05:22:12;;;;;;;11.90;5.28;;;7.50;99.90;;;;;;4948031;28;20061;-38
2023/03/20 05:24:38;;;;;;;9.82;4.78;;;7.50;99.90;;;;;;4947806;28;20084;-38
2023/03/20 05:27:03;;;;;;;14.55;4.90;;;7.50;99.90;;;;;;4949486;28;20051;-38
2023/03/20 05:29:29;;;;;;;13.18;4.65;;;7.50;99.90;;;;;;4948115;28;20062;-38
2023/03/20 05:31:55;;;;;;;8.90;4.82;;;7.50;99.90;;;;;;4945721;28;20058;-39
2023/03/20 05:34:21;;;;;;;10.65;4.35;;;7.50;99.90;;;;;;4941534;28;20540;-37
2023/03/20 05:36:47;;;;;;;9.65;4.65;;;7.50;99.90;;;;;;4946767;28;20062;-38
2023/03/20 05:39:13;;;;;;;11.77;4.80;;;7.50;99.90;;;;;;4945593;28;20039;-38
2023/03/20 05:41:38;;;;;;;14.00;4.53;;;7.50;99.90;;;;;;4948450;28;20397;-38
2023/03/20 05:44:04;;;;;;;13.02;4.32;;;7.40;99.90;;;;;;4941805;28;20051;-38
2023/03/20 05:46:30;;;;;;;10.73;4.38;;;7.40;99.90;;;;;;4946450;28;20043;-38
2023/03/20 05:48:56;;;;;;;9.07;4.18;;;7.40;99.90;;;;;;4945957;28;20050;-37
2023/03/20 05:51:22;;;;;;;15.00;4.57;;;7.40;99.90;;;;;;4948200;28;20059;-38
2023/03/20 05:53:47;;;;;;;10.73;4.55;;;7.40;99.90;;;;;;4943442;28;20529;-39
2023/03/20 05:56:13;;;;;;;9.82;4.25;;;7.40;99.90;;;;;;4944992;28;20051;-37
2023/03/20 05:58:39;;;;;;;10.30;4.38;;;7.40;99.90;;;;;;4942186;28;20055;-41
2023/03/20 06:01:05;;;;;;;10.93;4.65;;;7.40;99.90;;;;;;4946576;28;20406;-37
2023/03/20 06:03:30;;;;;;;11.63;4.45;;;7.40;99.90;;;;;;4939874;28;20054;-37
2023/03/20 06:05:56;;;;;;;11.80;4.22;;;7.40;99.90;;;;;;4946890;28;20043;-37
2023/03/20 06:08:22;;;;;;;11.25;4.80;;;7.40;99.90;;;;;;4944651;28;20055;-37
2023/03/20 06:10:50;;;;;;;13.60;5.65;;;7.40;99.90;;;;;;4945423;28;20063;-37
2023/03/20 06:13:16;;;;;;;11.93;5.10;;;7.50;99.90;;;;;;4942670;28;20047;-36
2023/03/20 06:15:42;;;;;;;13.65;6.10;;;7.50;99.90;;;;;;4941299;28;20051;-36
2023/03/20 06:18:08;;;;;;;11.88;4.95;;;7.50;99.90;;;;;;4943765;28;20122;-37
2023/03/20 06:20:33;;;;;;;11.52;4.70;;;7.50;99.90;;;;;;4946016;28;20548;-37
2023/03/20 06:22:59;;;;;;;10.13;4.78;;;7.60;99.90;;;;;;4940137;28;20074;-37
2023/03/20 06:25:25;;;;;;;13.35;5.82;;;7.60;99.90;;;;;;4943946;28;20058;-37
2023/03/20 06:27:50;;;;;;;11.38;5.30;;;7.60;99.90;;;;;;4941680;28;20119;-37
2023/03/20 06:30:17;;;;;;;12.43;5.80;;;7.60;99.90;;;;;;4944915;28;20055;-37
2023/03/20 06:32:43;;;;;;;12.57;4.57;;;7.60;99.90;;;;;;4945026;28;20062;-38
2023/03/20 06:35:10;;;;;;;11.93;6.07;;;7.60;99.90;;;;;;4943448;28;20564;-38
2023/03/20 06:37:35;;;;;;;11.25;5.43;;;7.60;99.90;;;;;;4943216;28;20105;-45
2023/03/20 06:40:06;;;;;;;11.25;4.80;;;7.60;99.90;;;;;;4938930;28;20059;-37
2023/03/20 06:42:32;;;;;;;15.75;7.45;;;7.60;99.90;;;;;;4936339;28;20087;-38
2023/03/20 06:44:58;;;;;;;13.60;5.70;;;7.60;99.90;;;;;;4934143;28;20150;-37
2023/03/20 06:47:23;;;;;;;16.48;6.63;;;7.60;99.90;;;;;;4937693;28;20055;-37
2023/03/20 06:49:49;;;;;;;15.75;5.57;;;7.60;99.90;;;;;;4938481;29;20134;-37
2023/03/20 06:52:17;;;;;;;12.65;5.60;;;7.60;99.90;;;;;;4935074;29;20051;-37
2023/03/20 06:54:43;;;;;;;14.60;5.65;;;7.60;99.90;;;;;;4935666;28;20057;-38
2023/03/20 06:57:09;;;;;;;14.88;5.78;;;7.60;99.90;;;;;;4935575;28;20647;-38
2023/03/20 06:59:35;;;;;;;12.75;7.20;;;7.60;99.90;;;;;;4940518;28;20047;-38
2023/03/20 07:02:02;;;;;;;16.23;5.72;;;7.60;99.90;;;;;;4941056;28;20059;-37
2023/03/20 07:04:27;;;;;;;11.30;5.43;;;7.60;99.90;;;;;;4937608;28;20052;-39
2023/03/20 07:06:54;;;;;;;11.57;5.53;;;7.60;99.90;;;;;;4942427;28;20530;-37
2023/03/20 07:09:21;;;;;;;15.13;5.55;;;7.70;99.90;;;;;;4933898;28;20059;-37
2023/03/20 07:11:47;;;;;;;12.38;5.85;;;7.60;99.90;;;;;;4941556;28;20773;-37
2023/03/20 07:14:13;;;;;;;17.40;6.63;;;7.70;99.90;;;;;;4940404;28;20059;-38
2023/03/20 07:16:39;;;;;;;14.10;6.45;;;7.70;99.90;;;;;;4936813;28;20139;-38
2023/03/20 07:19:05;;;;;;;14.75;6.10;;;7.70;99.90;;;;;;4943505;28;20139;-37
2023/03/20 07:21:30;;;;;;;11.50;5.53;;;7.80;99.90;;;;;;4941026;28;20539;-38
2023/03/20 07:23:56;;;;;;;12.30;5.80;;;7.80;99.90;;;;;;4937769;29;20058;-38
2023/03/20 07:26:22;;;;;;;13.82;6.03;;;7.80;99.90;;;;;;4933707;28;20059;-39
2023/03/20 07:28:48;;;;;;;13.88;6.30;;;7.90;99.90;;;;;;4942885;28;20468;-37
2023/03/20 07:31:22;;;;;;;14.18;5.70;;;7.90;99.90;;;;;;4938854;28;20107;-38
2023/03/20 07:33:48;;;;;;;13.43;6.13;;;7.90;99.90;;;;;;4941308;28;20106;-37
2023/03/20 07:36:14;;;;;;;14.48;6.22;;;8.00;99.90;;;;;;4937541;28;20098;-38
2023/03/20 07:38:40;;;;;;;20.70;6.65;;;8.00;99.90;;;;;;4940124;28;20110;-38
2023/03/20 07:41:06;;;;;;;10.35;5.65;;;8.00;99.90;;;;;;4943910;28;20485;-37
2023/03/20 07:43:32;;;;;;;13.35;6.32;;;8.00;99.90;;;;;;4938348;28;20089;-37
2023/03/20 07:46:01;;;;;;;13.27;6.47;;;8.10;99.90;;;;;;4940976;28;20108;-37
2023/03/20 07:48:27;;;;;;;12.10;6.20;;;8.10;99.90;;;;;;4941429;28;20051;-38
2023/03/20 07:50:53;;;;;;;13.25;6.03;;;8.10;99.90;;;;;;4940350;28;20055;-42
2023/03/20 07:53:18;;;;;;;12.48;5.75;;;8.20;99.90;;;;;;4935938;28;20058;-37
2023/03/20 07:55:44;;;;;;;13.60;5.22;;;8.30;99.90;;;;;;4939644;28;20058;-37
2023/03/20 07:58:10;;;;;;;13.90;6.68;;;8.30;99.90;;;;;;4945194;28;20058;-37
2023/03/20 08:00:36;;;;;;;13.48;6.88;;;8.30;99.90;;;;;;4936301;28;20058;-38
2023/03/20 08:03:02;;;;;;;11.18;5.72;;;8.30;99.90;;;;;;4952861;28;20059;-38
2023/03/20 08:05:28;;;;;;;14.27;7.07;;;8.40;99.90;;;;;;4938895;28;20523;-39
2023/03/20 08:07:54;;;;;;;10.93;5.50;;;8.40;99.90;;;;;;4944090;28;20054;-38
2023/03/20 08:10:20;;;;;;;14.88;6.22;;;8.40;99.90;;;;;;4940694;29;20060;-38
2023/03/20 08:12:46;;;;;;;13.40;5.70;;;8.50;99.90;;;;;;4946419;28;20059;-38
2023/03/20 08:15:12;;;;;;;12.40;5.70;;;8.50;99.90;;;;;;4945037;28;20472;-39
2023/03/20 08:17:42;;;;;;;15.77;7.10;;;8.60;99.90;;;;;;4938138;28;20052;-37
2023/03/20 08:20:08;;;;;;;12.98;6.05;;;8.60;99.90;;;;;;4946444;28;20061;-38
2023/03/20 08:22:34;;;;;;;15.98;6.95;;;8.60;99.90;;;;;;4937483;28;20114;-39
2023/03/20 08:25:00;;;;;;;13.10;6.78;;;8.70;99.90;;;;;;4942624;28;20067;-38
2023/03/20 08:27:25;;;;;;;11.73;5.50;;;8.70;99.90;;;;;;4936529;29;20057;-37
2023/03/20 08:29:52;;;;;;;13.02;6.57;;;8.80;99.90;;;;;;4941866;28;20524;-37
2023/03/20 08:32:17;;;;;;;14.07;7.13;;;8.80;99.90;;;;;;4941008;28;20498;-37
2023/03/20 08:34:43;;;;;;;10.45;5.70;;;8.90;99.90;;;;;;4942956;28;20058;-37
2023/03/20 08:37:11;;;;;;;13.70;6.50;;;8.90;99.90;;;;;;4940862;28;20520;-36
2023/03/20 08:39:38;;;;;;;12.00;6.20;;;9.00;99.90;;;;;;4939947;28;20043;-37
2023/03/20 08:42:04;;;;;;;12.85;6.38;;;9.00;99.90;;;;;;4937091;28;20055;-38
2023/03/20 08:44:30;;;;;;;16.73;6.13;;;9.10;99.90;;;;;;4939913;28;20047;-36
2023/03/20 08:46:56;;;;;;;11.60;6.10;;;9.10;99.90;;;;;;4938406;28;20109;-37
2023/03/20 08:49:22;;;;;;;10.68;4.90;;;9.10;99.90;;;;;;4934755;28;20059;-37
2023/03/20 08:51:48;;;;;;;13.48;5.97;;;9.10;99.90;;;;;;4932936;28;20035;-37
2023/03/20 08:54:15;;;;;;;11.38;5.90;;;9.20;99.90;;;;;;4940453;28;20441;-37
2023/03/20 08:56:41;;;;;;;15.23;5.22;;;9.20;99.90;;;;;;4941148;28;20131;-36
2023/03/20 08:59:07;;;;;;;10.80;5.30;;;9.20;99.90;;;;;;4940818;28;20103;-48
2023/03/20 09:01:33;;;;;;;10.38;5.50;;;9.30;99.90;;;;;;4944173;28;20051;-47
2023/03/20 09:03:59;;;;;;;16.80;6.25;;;9.40;99.90;;;;;;4940461;28;20063;-45
2023/03/20 09:06:25;;;;;;;9.43;4.35;;;9.40;99.90;;;;;;4945403;28;20051;-45
2023/03/20 09:08:53;;;;;;;13.50;5.93;;;9.50;99.90;;;;;;4944562;28;20568;-44
2023/03/20 09:11:19;;;;;;;12.15;5.25;;;9.50;99.90;;;;;;4942794;28;20172;-47
2023/03/20 09:13:45;;;;;;;14.15;6.30;;;9.50;99.90;;;;;;4939983;28;20047;-44
2023/03/20 09:16:10;;;;;;;13.15;5.50;;;9.60;99.90;;;;;;4946287;28;20047;-47
2023/03/20 09:18:36;;;;;;;10.95;4.88;;;9.70;99.90;;;;;;4944398;28;20087;-47
2023/03/20 09:21:02;;;;;;;9.65;4.57;;;9.80;99.90;;;;;;4941553;28;20047;-45
2023/03/20 09:23:27;;;;;;;11.98;4.97;;;9.90;99.90;;;;;;4939808;28;20421;-57
2023/03/20 09:25:53;;;;;;;8.73;4.80;;;9.90;99.90;;;;;;4941660;28;20151;-48
2023/03/20 09:28:19;;;;;;;12.45;5.40;;;10.00;99.90;;;;;;4936895;28;20459;-47
2023/03/20 09:30:44;;;;;;;11.38;4.38;;;10.00;99.90;;;;;;4942169;28;20059;-46
2023/03/20 09:33:11;;;;;;;9.88;4.50;;;10.10;99.90;;;;;;4939430;28;20080;-48
2023/03/20 09:35:36;;;;;;;10.77;5.13;;;10.00;99.90;;;;;;4941526;29;20062;-49
2023/03/20 09:38:02;;;;;;;11.43;5.10;;;10.10;99.90;;;;;;4942912;28;20051;-45
2023/03/20 09:40:40;;;;;;;16.60;5.50;;;10.10;99.90;;;;;;4933051;28;21271;-45
2023/03/20 09:43:34;;;;;;;10.30;5.20;;;10.10;99.90;;;;;;4937700;28;20055;-44
2023/03/20 09:46:09;;;;;;;12.15;4.93;;;10.10;99.90;;;;;;4941231;28;20410;-46
2023/03/20 09:48:50;;;;;;;11.52;5.00;;;10.10;99.90;;;;;;4941146;28;20189;-50
2023/03/20 09:51:39;;;;;;;11.80;4.47;;;10.10;99.90;;;;;;4937846;28;20493;-46
2023/03/20 09:54:25;;;;;;;11.18;4.70;;;10.10;99.90;;;;;;4932667;28;20051;-47
2023/03/20 09:56:53;;;;;;;11.77;4.53;;;10.00;99.90;;;;;;4941984;28;20047;-49
2023/03/20 09:59:20;;;;;;;11.95;4.45;;;10.00;99.90;;;;;;4932854;28;20125;-45
2023/03/20 10:02:09;;;;;;;8.77;3.25;;;9.90;99.90;;;;;;4936833;28;20110;-45
2023/03/20 10:04:36;;;;;;;9.88;4.25;;;9.90;99.90;;;;;;4937861;28;20055;-44
2023/03/20 10:07:09;;;;;;;10.75;4.00;;;9.80;99.90;;;;;;4944259;28;20082;-48
2023/03/20 10:09:36;;;;;;;8.35;4.57;;;9.80;99.90;;;;;;4938037;28;20098;-43
2023/03/20 10:12:25;;;;;;;12.88;4.90;;;9.60;99.90;;;;;;4939399;28;20142;-46
2023/03/20 10:15:15;;;;;;;8.00;4.45;;;9.60;99.90;;;;;;4938006;28;20118;-46
2023/03/20 10:18:10;;;;;;;16.20;5.65;;;9.70;99.90;;;;;;4936231;28;20051;-52
2023/03/20 10:20:49;;;;;;;10.93;4.50;;;9.80;99.90;;;;;;4937047;28;20129;-48
2023/03/20 10:23:49;;;;;;;9.18;4.20;;;9.80;99.90;;;;;;4937981;28;20372;-45
2023/03/20 10:26:20;;;;;;;8.05;4.45;;;9.80;99.90;;;;;;4941421;28;20055;-49
2023/03/20 10:28:51;;;;;;;8.93;4.40;;;9.70;99.90;;;;;;4941226;28;20421;-46
2023/03/20 10:31:33;;;;;;;10.40;3.75;;;9.70;99.90;;;;;;4942083;28;20677;-47
2023/03/20 10:34:04;;;;;;;9.18;4.25;;;9.60;99.90;;;;;;4941556;28;20097;-49
2023/03/20 10:36:45;;;;;;;11.32;4.00;;;9.60;99.90;;;;;;4942270;28;20601;-45
2023/03/20 10:39:40;;;;;;;10.65;4.18;;;9.60;99.90;;;;;;4936890;28;20082;-47
2023/03/20 10:42:19;;;;;;;11.60;4.78;;;9.60;99.90;;;;;;4934890;28;20588;-49
2023/03/20 10:45:01;;;;;;;7.80;3.38;;;9.70;99.90;;;;;;4940564;28;20073;-43
2023/03/20 10:47:33;;;;;;;9.48;3.65;;;9.70;99.90;;;;;;4941302;28;20048;-43
2023/03/20 10:50:10;;;;;;;7.70;3.00;;;9.80;99.90;;;;;;4939424;28;20493;-47
2023/03/20 10:52:40;;;;;;;8.73;3.15;;;9.80;99.90;;;;;;4941413;28;20084;-47
2023/03/20 10:55:17;;;;;;;6.63;3.25;;;9.80;99.90;;;;;;4941323;28;20059;-47
2023/03/20 10:57:50;;;;;;;7.30;2.72;;;9.80;99.90;;;;;;4942880;28;20051;-46
2023/03/20 11:00:22;;;;;;;9.30;2.00;;;9.80;99.90;;;;;;4941231;28;20055;-46
2023/03/20 11:02:47;;;;;;;9.73;2.22;;;9.80;99.90;;;;;;4935386;28;20082;-49
2023/03/20 11:05:32;;;;;;;5.25;1.92;;;9.90;99.90;;;;;;4937206;28;20565;-45
2023/03/20 11:08:12;;;;;;;6.35;2.10;;;9.90;99.90;;;;;;4938531;28;20077;-46
2023/03/20 11:10:40;;;;;;;8.25;2.33;;;9.80;99.90;;;;;;4935670;28;20511;-48
2023/03/20 11:13:44;;;;;;;7.63;2.22;;;9.80;99.90;;;;;;4937827;28;20063;-47
2023/03/20 11:16:30;;;;;;;7.35;2.13;;;9.80;99.90;;;;;;4923022;28;20059;-50
2023/03/20 11:19:07;;;;;;;4.68;2.17;;;9.80;99.90;;;;;;4939458;28;20118;-45
2023/03/20 11:21:44;;;;;;;7.72;2.22;;;9.90;99.90;;;;;;4933874;28;20055;-54
2023/03/20 11:24:44;;;;;;;6.35;2.58;;;9.90;99.90;;;;;;4939580;28;20097;-47
2023/03/20 11:27:19;;;;;;;6.95;2.67;;;9.90;99.90;;;;;;4928851;28;20111;-46
2023/03/20 11:29:49;;;;;;;9.43;2.75;;;9.90;99.90;;;;;;4942170;28;20494;-48
2023/03/20 11:32:34;;;;;;;3.97;2.03;;;9.80;99.90;;;;;;4938615;28;20055;-47
2023/03/20 11:35:19;;;;;;;6.22;1.90;;;9.80;99.90;;;;;;4939047;28;20188;-48
2023/03/20 11:37:47;;;;;;;5.82;2.63;;;9.80;99.90;;;;;;4939309;28;20066;-45
2023/03/20 11:40:22;;;;;;;6.35;2.30;;;9.80;99.90;;;;;;4941928;28;20106;-45
2023/03/20 11:42:56;;;;;;;8.52;2.50;;;9.80;99.90;;;;;;4942078;28;20066;-45
2023/03/20 11:45:22;;;;;;;5.93;2.35;;;9.80;99.90;;;;;;4937963;28;20157;-45
2023/03/20 11:47:54;;;;;;;11.48;2.50;;;9.80;99.90;;;;;;4940698;28;20043;-48
2023/03/20 11:50:35;;;;;;;8.63;2.78;;;9.80;99.90;;;;;;4937592;28;20102;-45
2023/03/20 11:53:03;;;;;;;5.75;2.30;;;9.80;99.90;;;;;;4937258;28;20058;-46
2023/03/20 11:55:31;;;;;;;7.20;2.30;;;9.80;99.90;;;;;;4941524;28;20105;-45
2023/03/20 11:57:59;;;;;;;7.97;2.25;;;9.70;99.90;;;;;;4932705;28;20074;-47
2023/03/20 12:00:40;;;;;;;6.25;2.75;;;9.70;99.90;;;;;;4935222;28;20091;-45
2023/03/20 12:03:40;;;;;;;5.45;2.00;;;9.70;99.90;;;;;;4936289;28;20059;-48
2023/03/20 12:06:12;;;;;;;8.23;2.90;;;9.70;99.90;;;;;;4935239;28;20134;-48
2023/03/20 12:08:40;;;;;;;6.50;2.22;;;9.60;99.90;;;;;;4935175;28;20059;-48
2023/03/20 12:11:34;;;;;;;5.75;2.60;;;9.60;99.90;;;;;;4934660;28;20103;-47
2023/03/20 12:14:03;;;;;;;5.05;2.20;;;9.60;99.90;;;;;;4945141;28;20055;-45
2023/03/20 12:16:30;;;;;;;5.15;2.08;;;9.50;99.90;;;;;;4943847;28;20868;-48
2023/03/20 12:19:16;;;;;;;5.05;2.17;;;9.40;99.90;;;;;;4936768;28;20468;-45
2023/03/20 12:22:00;;;;;;;8.63;1.92;;;9.40;99.90;;;;;;4942260;28;20101;-47
2023/03/20 12:24:45;;;;;;;5.38;2.60;;;9.40;99.90;;;;;;4940541;28;20063;-46
2023/03/20 12:27:30;;;;;;;6.28;2.08;;;9.30;99.90;;;;;;4935704;28;20670;-53
2023/03/20 12:30:18;;;;;;;7.43;2.25;;;9.30;99.90;;;;;;4938161;28;20059;-46
2023/03/20 12:32:55;;;;;;;5.28;2.08;;;9.20;99.90;;;;;;4936587;28;20131;-48
2023/03/20 12:35:30;;;;;;;6.10;1.90;;;9.20;99.90;;;;;;4940668;28;20066;-48
2023/03/20 12:37:57;;;;;;;5.28;2.00;;;9.10;99.90;;;;;;4939424;28;20086;-47
2023/03/20 12:40:47;;;;;;;5.00;1.83;;;9.10;99.90;;;;;;4941563;28;20468;-50
2023/03/20 12:43:50;;;;;;;7.55;2.22;;;9.10;99.90;;;;;;4942295;28;20142;-48
2023/03/20 12:46:34;;;;;;;5.47;2.07;;;9.10;99.90;;;;;;4939058;28;20051;-45
2023/03/20 12:49:23;;;;;;;8.55;2.72;;;9.10;99.90;;;;;;4938184;28;20063;-44
2023/03/20 12:51:56;;;;;;;7.28;2.28;;;9.00;99.90;;;;;;4911760;28;20476;-44
2023/03/20 12:54:30;;;;;;;7.22;3.08;;;9.00;99.90;;;;;;4934097;28;20142;-43
2023/03/20 12:57:14;;;;;;;7.32;2.80;;;8.90;99.90;;;;;;4938731;28;20474;-48
2023/03/20 12:59:55;;;;;;;10.02;2.70;;;8.90;99.90;;;;;;4937699;28;20078;-47
2023/03/20 13:03:13;;;;;;;6.60;2.90;;;8.90;99.90;;;;;;4934646;28;20134;-42
2023/03/20 13:05:54;;;;;;;10.73;2.80;;;8.80;99.90;;;;;;4907446;28;20067;-36
2023/03/20 13:08:38;;;;;;;5.38;3.08;;;8.80;99.90;;;;;;4939633;28;20047;-36
2023/03/20 13:11:23;;;;;;;6.43;2.10;;;8.80;99.90;;;;;;4938019;28;20656;-36
2023/03/20 13:14:30;;;;;;;6.07;3.20;;;8.80;99.90;;;;;;4940654;28;20142;-36